Time;durP1;ratioP1;P1;durP2;ratioP2;P2;SDS_P1;SDS_P2;PMS_P1;PMS_P2;Temp;Humidity;BMP_temperature;BMP_pressure;BME280_temperature;BME280_humidity;BME280_pressure;Samples;Min_cycle;Max_cycle;Signal;HPM_P1;HPM_P2
2021/01/27 00:02:28;;;;;;;18.42;10.77;;;3.60;99.90;;;;;;10515163;28;20076;-67
2021/01/27 00:07:30;;;;;;;18.15;11.23;;;3.60;99.90;;;;;;10533248;28;20101;-67
2021/01/27 00:12:31;;;;;;;16.80;8.93;;;3.70;99.90;;;;;;10533580;28;20056;-67
2021/01/27 00:17:33;;;;;;;12.50;8.25;;;3.60;99.90;;;;;;10533313;28;20109;-68
2021/01/27 00:22:35;;;;;;;12.90;9.10;;;3.60;99.90;;;;;;10533710;28;20059;-67
2021/01/27 00:27:36;;;;;;;11.60;7.90;;;3.50;99.90;;;;;;10533443;28;20132;-67
2021/01/27 00:32:38;;;;;;;10.85;7.53;;;3.50;99.90;;;;;;10532488;28;20105;-67
2021/01/27 00:37:40;;;;;;;11.68;7.53;;;3.50;99.90;;;;;;10532233;28;20048;-67
2021/01/27 00:42:41;;;;;;;11.85;7.78;;;3.50;99.90;;;;;;10532726;28;20058;-67
2021/01/27 00:47:43;;;;;;;10.65;7.70;;;3.50;99.90;;;;;;10531949;28;20060;-67
2021/01/27 00:52:45;;;;;;;13.45;8.00;;;3.50;99.90;;;;;;10512869;28;20522;-67
2021/01/27 00:57:46;;;;;;;10.88;7.55;;;3.50;99.90;;;;;;10531175;28;20087;-67
2021/01/27 01:02:48;;;;;;;12.80;8.02;;;3.50;99.90;;;;;;10531684;28;20144;-67
2021/01/27 01:07:53;;;;;;;10.60;7.78;;;3.50;99.90;;;;;;10531512;28;20109;-67
2021/01/27 01:12:55;;;;;;;10.57;7.25;;;3.30;99.90;;;;;;10531131;28;20091;-67
2021/01/27 01:17:57;;;;;;;11.38;7.25;;;3.20;99.90;;;;;;10531088;28;20101;-67
2021/01/27 01:23:00;;;;;;;12.70;6.97;;;3.20;99.90;;;;;;10531467;28;20052;-67
2021/01/27 01:28:04;;;;;;;13.35;6.78;;;3.20;99.90;;;;;;10530785;28;20062;-68
2021/01/27 01:33:27;;;;;;;9.73;6.53;;;3.10;99.90;;;;;;10530527;28;20098;-67
2021/01/27 01:38:28;;;;;;;10.13;6.32;;;3.00;99.90;;;;;;10530335;28;20044;-67
2021/01/27 01:43:38;;;;;;;11.13;6.75;;;3.00;99.90;;;;;;10530061;28;20134;-67
2021/01/27 01:49:00;;;;;;;11.35;6.85;;;3.10;99.90;;;;;;10530021;28;20052;-67
2021/01/27 01:54:21;;;;;;;10.20;6.35;;;3.20;99.90;;;;;;10530651;28;20087;-67
2021/01/27 01:59:24;;;;;;;12.93;6.38;;;3.10;99.90;;;;;;10528448;28;20430;-67
2021/01/27 02:04:58;;;;;;;10.63;6.50;;;3.10;99.90;;;;;;10528655;28;20097;-67
2021/01/27 02:10:00;;;;;;;9.40;6.07;;;3.10;99.90;;;;;;10525629;28;20040;-67
2021/01/27 02:15:16;;;;;;;9.50;5.30;;;3.10;99.90;;;;;;10528384;28;20071;-68
2021/01/27 02:20:36;;;;;;;8.82;5.72;;;3.10;99.90;;;;;;10529657;28;20055;-67
2021/01/27 02:25:52;;;;;;;8.80;6.05;;;3.20;99.90;;;;;;10529823;28;20040;-67
2021/01/27 02:31:32;;;;;;;9.20;5.80;;;3.30;99.90;;;;;;10528535;28;20088;-67
2021/01/27 02:36:53;;;;;;;10.77;6.10;;;3.20;99.90;;;;;;10470870;28;20148;-67
2021/01/27 02:42:17;;;;;;;11.10;6.05;;;3.30;99.90;;;;;;10527318;28;20127;-67
2021/01/27 02:47:33;;;;;;;9.48;5.45;;;3.30;99.90;;;;;;10514138;28;20052;-67
2021/01/27 02:52:41;;;;;;;8.73;5.30;;;3.40;99.90;;;;;;10526088;28;20055;-67
2021/01/27 02:58:06;;;;;;;9.98;6.20;;;3.20;99.90;;;;;;10508832;28;20055;-68
2021/01/27 03:03:14;;;;;;;13.15;6.15;;;3.30;99.90;;;;;;10531975;28;20044;-67
2021/01/27 03:08:21;;;;;;;10.27;5.97;;;3.30;99.90;;;;;;10535129;28;20056;-67
2021/01/27 03:13:22;;;;;;;10.70;6.95;;;3.30;99.90;;;;;;10503017;28;20393;-67
2021/01/27 03:18:30;;;;;;;23.13;12.18;;;3.40;99.90;;;;;;10540807;28;20089;-67
2021/01/27 03:23:43;;;;;;;9.65;6.10;;;3.40;99.90;;;;;;10543606;28;20400;-67
2021/01/27 03:28:50;;;;;;;10.95;6.40;;;3.20;99.90;;;;;;10542830;28;20396;-67
2021/01/27 03:33:59;;;;;;;10.15;6.47;;;3.10;99.90;;;;;;10542806;28;20074;-67
2021/01/27 03:39:03;;;;;;;12.05;6.80;;;3.20;99.90;;;;;;10542987;28;20052;-67
2021/01/27 03:44:26;;;;;;;10.05;7.15;;;3.20;99.90;;;;;;10542810;28;20066;-67
2021/01/27 03:49:35;;;;;;;12.57;7.43;;;3.30;99.90;;;;;;10542660;28;20048;-67
2021/01/27 03:54:40;;;;;;;10.90;7.38;;;3.30;99.90;;;;;;10542286;28;20492;-67
2021/01/27 03:59:45;;;;;;;11.05;6.35;;;3.30;99.90;;;;;;10541987;28;20044;-67
2021/01/27 04:04:47;;;;;;;11.82;6.25;;;3.30;99.90;;;;;;10519735;28;20090;-67
2021/01/27 04:09:48;;;;;;;13.32;6.18;;;3.40;99.90;;;;;;10536617;28;20116;-66
2021/01/27 04:14:49;;;;;;;;;;;3.40;99.90;;;;;;10533736;28;20048;-67
2021/01/27 04:19:51;;;;;;;;;;;3.20;99.90;;;;;;10534391;28;20003;-67
2021/01/27 04:24:52;;;;;;;;;;;3.20;99.90;;;;;;10533765;28;20236;-67
2021/01/27 04:29:53;;;;;;;;;;;3.20;99.90;;;;;;10533608;28;19963;-67
2021/01/27 04:34:55;;;;;;;;;;;3.10;99.90;;;;;;10533972;28;20521;-67
2021/01/27 04:39:56;;;;;;;;;;;3.20;99.90;;;;;;10534382;28;19920;-67
2021/01/27 04:44:58;;;;;;;;;;;3.20;99.90;;;;;;10533138;28;20367;-67
2021/01/27 04:50:01;;;;;;;;;;;3.20;99.90;;;;;;10533104;28;20314;-67
2021/01/27 04:55:06;;;;;;;;;;;3.10;99.90;;;;;;10533515;28;19924;-67
2021/01/27 05:00:33;;;;;;;;;;;3.10;99.90;;;;;;10532506;28;20361;-67
2021/01/27 05:05:35;;;;;;;;;;;3.20;99.90;;;;;;10532580;28;20357;-67
2021/01/27 05:10:43;;;;;;;;;;;3.30;99.90;;;;;;10533292;28;20012;-67
2021/01/27 05:15:45;;;;;;;;;;;3.30;99.90;;;;;;10531970;28;20380;-67
2021/01/27 05:20:47;;;;;;;;;;;3.30;99.90;;;;;;10532010;28;19965;-67
2021/01/27 05:26:03;;;;;;;;;;;3.30;99.90;;;;;;10532296;28;19920;-67
2021/01/27 05:31:04;;;;;;;;;;;3.40;99.90;;;;;;10531091;28;19959;-67
2021/01/27 05:36:07;;;;;;;;;;;3.30;99.90;;;;;;10531618;28;19924;-67
2021/01/27 05:41:14;;;;;;;;;;;3.30;99.90;;;;;;10531064;28;20372;-67
2021/01/27 05:46:28;;;;;;;;;;;3.40;99.90;;;;;;10531080;28;19920;-67
2021/01/27 05:51:33;;;;;;;;;;;3.40;99.90;;;;;;10530527;28;19924;-67
2021/01/27 05:56:35;;;;;;;;;;;3.40;99.90;;;;;;10531348;28;20010;-67
2021/01/27 06:01:38;;;;;;;;;;;3.40;99.90;;;;;;10530297;28;19927;-67
2021/01/27 06:06:45;;;;;;;;;;;3.40;99.90;;;;;;10530374;28;19927;-67
2021/01/27 06:11:58;;;;;;;;;;;3.20;99.90;;;;;;10512761;28;19981;-68
2021/01/27 06:17:13;;;;;;;;;;;3.20;99.90;;;;;;10529652;28;19970;-67
2021/01/27 06:22:28;;;;;;;;;;;3.20;99.90;;;;;;10529791;28;20139;-67
2021/01/27 06:27:32;;;;;;;;;;;3.10;99.90;;;;;;10511238;28;20433;-67
2021/01/27 06:32:34;;;;;;;;;;;3.00;99.90;;;;;;10529495;28;19978;-67
2021/01/27 06:37:58;;;;;;;;;;;2.80;99.90;;;;;;10529622;28;19920;-67
2021/01/27 06:43:15;;;;;;;;;;;2.80;99.90;;;;;;10523388;28;20021;-67
2021/01/27 06:48:22;;;;;;;;;;;2.80;99.90;;;;;;10532017;28;19931;-67
2021/01/27 06:53:30;;;;;;;;;;;2.90;99.90;;;;;;10520327;28;19926;-67
2021/01/27 06:58:58;;;;;;;;;;;2.90;99.90;;;;;;10537025;28;19920;-67
2021/01/27 07:04:23;;;;;;;;;;;3.00;99.90;;;;;;10521604;28;19920;-67
2021/01/27 07:09:25;;;;;;;;;;;3.00;99.90;;;;;;10537625;28;19951;-67
2021/01/27 07:14:26;;;;;;;;;;;3.10;99.90;;;;;;10537502;28;19965;-67
2021/01/27 07:19:30;;;;;;;;;;;3.00;99.90;;;;;;10536850;28;19920;-67
2021/01/27 07:24:47;;;;;;;;;;;2.90;99.90;;;;;;10536834;28;20024;-67
2021/01/27 07:30:11;;;;;;;;;;;3.10;99.90;;;;;;10536188;28;19927;-67
2021/01/27 07:35:16;;;;;;;;;;;3.10;99.90;;;;;;10530503;28;19981;-67
2021/01/27 07:40:24;;;;;;;;;;;3.00;99.90;;;;;;10518304;28;19973;-67
2021/01/27 07:45:30;;;;;;;;;;;3.20;99.90;;;;;;10535893;28;19927;-67
2021/01/27 07:50:32;;;;;;;;;;;3.10;99.90;;;;;;10536349;28;19924;-67
2021/01/27 07:55:33;;;;;;;;;;;2.90;99.90;;;;;;10517106;28;19920;-67
2021/01/27 08:00:39;;;;;;;;;;;3.10;99.90;;;;;;10534461;28;19920;-67
2021/01/27 08:05:42;;;;;;;;;;;3.30;99.90;;;;;;10535340;28;19920;-67
2021/01/27 08:10:43;;;;;;;;;;;3.30;99.90;;;;;;10534624;28;20384;-67
2021/01/27 08:16:00;;;;;;;;;;;3.30;99.90;;;;;;10534173;28;19924;-67
2021/01/27 08:21:17;;;;;;;;;;;3.50;99.90;;;;;;10516855;28;19923;-67
2021/01/27 08:26:37;;;;;;;;;;;3.50;99.90;;;;;;10534782;28;20010;-67
2021/01/27 08:31:38;;;;;;;;;;;3.40;99.90;;;;;;10533447;28;19962;-67
2021/01/27 08:36:40;;;;;;;;;;;3.40;99.90;;;;;;10533695;28;19920;-67
2021/01/27 08:41:51;;;;;;;;;;;3.40;99.90;;;;;;10533850;28;19920;-67
2021/01/27 08:46:56;;;;;;;;;;;3.40;99.90;;;;;;10533074;28;20360;-67
2021/01/27 08:51:57;;;;;;;;;;;3.50;99.90;;;;;;10533601;28;19920;-67
2021/01/27 08:57:16;;;;;;;;;;;3.60;99.90;;;;;;10533544;28;19953;-67
2021/01/27 09:02:36;;;;;;;;;;;3.60;99.90;;;;;;10532737;28;19920;-67
2021/01/27 09:07:51;;;;;;;;;;;3.70;99.90;;;;;;10532238;28;20007;-67
2021/01/27 09:12:52;;;;;;;;;;;3.90;99.90;;;;;;10531826;28;19920;-67
2021/01/27 09:17:55;;;;;;;;;;;3.90;99.90;;;;;;10532008;28;19967;-67
2021/01/27 09:23:01;;;;;;;;;;;3.90;99.90;;;;;;10532512;28;19920;-67
2021/01/27 09:28:04;;;;;;;;;;;4.20;99.90;;;;;;10531498;28;19971;-67
2021/01/27 09:33:09;;;;;;;;;;;4.20;99.90;;;;;;10531938;28;19931;-67
2021/01/27 09:38:18;;;;;;;;;;;4.50;99.90;;;;;;10531604;28;20438;-67
2021/01/27 09:43:20;;;;;;;;;;;4.80;99.90;;;;;;10531096;28;20342;-67
2021/01/27 09:48:23;;;;;;;;;;;4.70;99.90;;;;;;10512898;28;19923;-67
2021/01/27 09:53:35;;;;;;;;;;;4.60;99.90;;;;;;10530794;28;19924;-67
2021/01/27 09:58:39;;;;;;;;;;;4.50;99.90;;;;;;10530399;28;20379;-67
2021/01/27 10:03:42;;;;;;;;;;;4.70;99.90;;;;;;10512755;28;19946;-67
2021/01/27 10:08:48;;;;;;;;;;;4.50;99.90;;;;;;10530691;28;19993;-67
2021/01/27 10:13:58;;;;;;;;;;;4.40;99.90;;;;;;10529781;28;20416;-67
2021/01/27 10:19:07;;;;;;;;;;;4.30;99.90;;;;;;10530393;28;19973;-67
2021/01/27 10:24:08;;;;;;;;;;;4.50;99.90;;;;;;10529053;28;20428;-67
2021/01/27 10:29:15;;;;;;;;;;;4.60;99.90;;;;;;10529451;28;20396;-67
2021/01/27 10:34:36;;;;;;;;;;;4.70;99.90;;;;;;10530027;28;19930;-67
2021/01/27 10:39:38;;;;;;;;;;;4.80;99.90;;;;;;10511824;28;19920;-67
2021/01/27 10:44:40;;;;;;;;;;;5.10;99.90;;;;;;10529213;28;19951;-67
2021/01/27 10:49:46;;;;;;;;;;;5.20;99.90;;;;;;10529097;28;20364;-67
2021/01/27 10:54:48;;;;;;;;;;;5.40;99.90;;;;;;10529149;28;20403;-67
2021/01/27 10:59:49;;;;;;;;;;;5.40;99.90;;;;;;10510664;28;19955;-67
2021/01/27 11:04:50;;;;;;;;;;;5.30;99.90;;;;;;10528724;28;19962;-68
2021/01/27 11:09:52;;;;;;;;;;;5.00;99.90;;;;;;10511157;28;19965;-67
2021/01/27 11:14:53;;;;;;;;;;;5.00;99.90;;;;;;10528941;28;20291;-68
2021/01/27 11:19:54;;;;;;;;;;;5.20;99.90;;;;;;10529556;28;19920;-67
2021/01/27 11:24:56;;;;;;;;;;;5.10;99.90;;;;;;10528579;28;20006;-67
2021/01/27 11:29:57;;;;;;;;;;;5.00;99.90;;;;;;10527782;28;19967;-67
2021/01/27 11:34:59;;;;;;;;;;;4.90;99.90;;;;;;10531987;28;20326;-67
2021/01/27 11:40:00;;;;;;;;;;;5.00;99.90;;;;;;10536015;28;19987;-67
2021/01/27 11:45:03;;;;;;;;;;;4.80;99.90;;;;;;10535032;28;20605;-67
2021/01/27 11:50:05;;;;;;;;;;;4.90;99.90;;;;;;10517455;28;20288;-68
2021/01/27 11:55:08;;;;;;;;;;;5.00;99.90;;;;;;10517785;28;19981;-67
2021/01/27 12:00:09;;;;;;;;;;;5.20;99.90;;;;;;10534841;28;19959;-67
2021/01/27 12:05:12;;;;;;;;;;;5.20;99.90;;;;;;10535781;28;20007;-67
2021/01/27 12:10:13;;;;;;;;;;;5.30;99.90;;;;;;10535543;28;19920;-67
2021/01/27 12:15:15;;;;;;;;;;;5.40;99.90;;;;;;10534422;28;19923;-67
2021/01/27 12:20:17;;;;;;;;;;;5.50;99.90;;;;;;10534951;28;19939;-67
2021/01/27 12:25:18;;;;;;;;;;;5.40;99.90;;;;;;10534280;28;19963;-67
2021/01/27 12:30:20;;;;;;;;;;;5.40;99.90;;;;;;10533793;28;19926;-67
2021/01/27 12:35:22;;;;;;;;;;;5.50;99.90;;;;;;10534690;28;20015;-67
2021/01/27 12:40:24;;;;;;;;;;;5.30;99.90;;;;;;10534055;28;19920;-68
2021/01/27 12:45:26;;;;;;;;;;;5.40;99.90;;;;;;10532635;28;19959;-67
2021/01/27 12:50:27;;;;;;;;;;;5.30;99.90;;;;;;10533765;28;19928;-67
2021/01/27 12:55:29;;;;;;;;;;;5.30;99.90;;;;;;10533699;28;19920;-67
2021/01/27 13:00:30;;;;;;;;;;;5.40;99.90;;;;;;10533264;28;19973;-67
2021/01/27 13:05:32;;;;;;;;;;;5.30;99.90;;;;;;10533442;28;20339;-67
2021/01/27 13:10:34;;;;;;;;;;;5.30;99.90;;;;;;10532886;28;20011;-67
2021/01/27 13:15:35;;;;;;;;;;;5.40;99.90;;;;;;10531990;28;20404;-67
2021/01/27 13:20:37;;;;;;;;;;;5.40;99.90;;;;;;10532634;28;19923;-68
2021/01/27 13:25:39;;;;;;;;;;;5.40;99.90;;;;;;10532274;28;19924;-67
2021/01/27 13:30:40;;;;;;;;;;;5.30;99.90;;;;;;10531157;28;19923;-67
2021/01/27 13:35:43;;;;;;;;;;;5.40;99.90;;;;;;10532355;28;20347;-67
2021/01/27 13:40:44;;;;;;;;;;;5.40;99.90;;;;;;10531539;28;19919;-67
2021/01/27 13:45:46;;;;;;;;;;;5.40;99.90;;;;;;10530314;28;20285;-67
2021/01/27 13:50:47;;;;;;;;;;;5.40;99.90;;;;;;10530924;28;19977;-67
2021/01/27 13:55:49;;;;;;;;;;;5.40;99.90;;;;;;10530616;28;19920;-68
2021/01/27 14:00:50;;;;;;;;;;;5.40;99.90;;;;;;10530270;28;19920;-67
2021/01/27 14:05:51;;;;;;;;;;;5.50;99.90;;;;;;10530331;28;19930;-67
2021/01/27 14:10:53;;;;;;;;;;;5.40;99.90;;;;;;10530767;28;19920;-67
2021/01/27 14:15:54;;;;;;;;;;;5.30;99.90;;;;;;10529699;28;20399;-67
2021/01/27 14:20:55;;;;;;;;;;;5.30;99.90;;;;;;10530256;28;20333;-67
2021/01/27 14:25:57;;;;;;;;;;;5.10;99.90;;;;;;10530076;28;19942;-67
2021/01/27 14:30:58;;;;;;;;;;;5.00;99.90;;;;;;10529288;28;19923;-67
2021/01/27 14:36:00;;;;;;;;;;;5.00;99.90;;;;;;10528927;28;19920;-68
2021/01/27 14:41:02;;;;;;;;;;;5.00;99.90;;;;;;10528527;28;19920;-67
2021/01/27 14:46:05;;;;;;;;;;;4.90;99.90;;;;;;10527167;28;19988;-67
2021/01/27 14:51:07;;;;;;;;;;;4.80;99.90;;;;;;10529371;28;20376;-67
2021/01/27 14:56:08;;;;;;;;;;;4.80;99.90;;;;;;10528906;28;19946;-67
2021/01/27 15:01:10;;;;;;;;;;;4.80;99.90;;;;;;10528279;28;19973;-67
2021/01/27 15:06:12;;;;;;;;;;;4.90;99.90;;;;;;10528458;28;19926;-67
2021/01/27 15:11:13;;;;;;;;;;;4.90;99.90;;;;;;10533586;28;20405;-67
2021/01/27 15:16:14;;;;;;;;;;;4.80;99.90;;;;;;10518302;28;19962;-67
2021/01/27 15:21:17;;;;;;;;;;;4.70;99.90;;;;;;10536735;28;19931;-67
2021/01/27 15:26:18;;;;;;;;;;;4.70;99.90;;;;;;10536328;28;19920;-67
2021/01/27 15:31:19;;;;;;;;;;;4.60;99.90;;;;;;10535767;28;19975;-67
2021/01/27 15:36:21;;;;;;;;;;;4.80;99.90;;;;;;10517978;28;19924;-67
2021/01/27 15:41:27;;;;;;;;;;;4.60;99.90;;;;;;10535893;28;19959;-67
2021/01/27 15:46:28;;;;;;;;;;;4.70;99.90;;;;;;10534806;28;19930;-67
2021/01/27 15:51:30;;;;;;;;;;;4.70;99.90;;;;;;10535526;28;19924;-67
2021/01/27 15:56:31;;;;;;;;;;;4.60;99.90;;;;;;10536579;28;19962;-67
2021/01/27 16:01:33;;;;;;;;;;;4.60;99.90;;;;;;10534312;28;20023;-67
2021/01/27 16:06:34;;;;;;;;;;;4.60;99.90;;;;;;10534506;28;19926;-67
2021/01/27 16:11:36;;;;;;;;;;;4.60;99.90;;;;;;10534697;28;19924;-67
2021/01/27 16:16:37;;;;;;;;;;;4.60;99.90;;;;;;10528931;28;20015;-68
2021/01/27 16:21:39;;;;;;;;;;;4.60;99.90;;;;;;10527411;28;19924;-68
2021/01/27 16:26:40;;;;;;;;;;;4.60;99.90;;;;;;10532598;28;20011;-68
2021/01/27 16:31:42;;;;;;;;;;;4.50;99.90;;;;;;10531446;28;20021;-68
2021/01/27 16:36:44;;;;;;;;;;;4.60;99.90;;;;;;10513665;28;19927;-67
2021/01/27 16:41:50;;;;;;;;;;;4.70;99.90;;;;;;10528783;28;19967;-68
2021/01/27 16:46:51;;;;;;;;;;;4.70;99.90;;;;;;10522600;28;20364;-68
2021/01/27 16:51:53;;;;;;;;;;;4.70;99.90;;;;;;10530807;28;20295;-68
2021/01/27 16:56:54;;;;;;;;;;;4.60;99.90;;;;;;10531474;28;20257;-68
2021/01/27 17:01:56;;;;;;;;;;;4.60;99.90;;;;;;10531275;28;19924;-68
2021/01/27 17:07:01;;;;;;;;;;;4.60;99.90;;;;;;10530535;28;19959;-68
2021/01/27 17:12:02;;;;;;;;;;;4.60;99.90;;;;;;10530861;28;20269;-68
2021/01/27 17:17:04;;;;;;;;;;;4.70;99.90;;;;;;10526312;28;19924;-68
2021/01/27 17:22:05;;;;;;;;;;;4.70;99.90;;;;;;10509229;28;20307;-67
2021/01/27 17:27:06;;;;;;;;;;;4.60;99.90;;;;;;10539930;28;19962;-68
2021/01/27 17:32:08;;;;;;;;;;;4.70;99.90;;;;;;10523048;28;20249;-67
2021/01/27 17:37:11;;;;;;;;;;;4.60;99.90;;;;;;10515746;28;19927;-68
2021/01/27 17:42:12;;;;;;;;;;;4.60;99.90;;;;;;10524530;28;19927;-68
2021/01/27 17:47:14;;;;;;;;;;;4.60;99.90;;;;;;10524365;28;19959;-68
2021/01/27 17:52:32;;;;;;;;;;;4.60;99.90;;;;;;10528485;28;19920;-67
2021/01/27 17:57:34;;;;;;;;;;;4.50;99.90;;;;;;10523497;28;20027;-68
2021/01/27 18:02:35;;;;;;;;;;;4.60;99.90;;;;;;10527548;28;19939;-67
2021/01/27 18:07:37;;;;;;;;;;;4.50;99.90;;;;;;10527144;28;19946;-67
2021/01/27 18:12:39;;;;;;;;;;;4.60;99.90;;;;;;10526798;28;19924;-67
2021/01/27 18:17:41;;;;;;;;;;;4.60;99.90;;;;;;10504119;28;20027;-67
2021/01/27 18:22:42;;;;;;;;;;;4.70;99.90;;;;;;10517747;28;20364;-67
2021/01/27 18:27:44;;;;;;;;;;;4.70;99.90;;;;;;10527778;28;19924;-67
2021/01/27 18:32:46;;;;;;;;;;;4.60;99.90;;;;;;10525986;28;20006;-67
2021/01/27 18:37:47;;;;;;;;;;;4.60;99.90;;;;;;10519574;28;19920;-67
2021/01/27 18:42:49;;;;;;;;;;;4.60;99.90;;;;;;10526178;28;19920;-67
2021/01/27 18:47:51;;;;;;;;;;;4.60;99.90;;;;;;10527004;28;20002;-67
2021/01/27 18:52:54;;;;;;;;;;;4.60;99.90;;;;;;10514078;28;19920;-67
2021/01/27 18:57:55;;;;;;;;;;;4.60;99.90;;;;;;10527778;28;19927;-67
2021/01/27 19:02:57;;;;;;;;;;;4.60;99.90;;;;;;10526300;28;19924;-67
2021/01/27 19:07:58;;;;;;;;;;;4.60;99.90;;;;;;10525795;28;19975;-67
2021/01/27 19:13:00;;;;;;;;;;;4.70;99.90;;;;;;10524526;28;20018;-67
2021/01/27 19:18:03;;;;;;;;;;;4.70;99.90;;;;;;10507045;28;19935;-68
2021/01/27 19:23:05;;;;;;;;;;;4.70;99.90;;;;;;10521692;28;20441;-67
2021/01/27 19:28:07;;;;;;;;;;;4.70;99.90;;;;;;10526625;28;19932;-67
2021/01/27 19:33:09;;;;;;;;;;;4.80;99.90;;;;;;10524852;28;20007;-67
2021/01/27 19:38:12;;;;;;;;;;;4.70;99.90;;;;;;10527343;28;19928;-67
2021/01/27 19:43:14;;;;;;;;;;;4.80;99.90;;;;;;10526353;28;19920;-67
2021/01/27 19:48:17;;;;;;;;;;;4.80;99.90;;;;;;10527658;28;19928;-67
2021/01/27 19:53:19;;;;;;;;;;;4.70;99.90;;;;;;10526451;28;20368;-68
2021/01/27 19:58:21;;;;;;;;;;;4.80;99.90;;;;;;10534048;28;20027;-67
2021/01/27 20:03:22;;;;;;;;;;;4.80;99.90;;;;;;10533240;28;20296;-67
2021/01/27 20:08:24;;;;;;;;;;;4.90;99.90;;;;;;10533074;28;19970;-67
2021/01/27 20:13:28;;;;;;;;;;;4.90;99.90;;;;;;10533355;28;20284;-67
2021/01/27 20:18:29;;;;;;;;;;;4.90;99.90;;;;;;10532740;28;20415;-67
2021/01/27 20:23:31;;;;;;;;;;;4.90;99.90;;;;;;10533280;28;19946;-67
2021/01/27 20:28:32;;;;;;;;;;;4.90;99.90;;;;;;10532820;28;19920;-67
2021/01/27 20:33:34;;;;;;;;;;;5.00;99.90;;;;;;10514708;28;20011;-67
2021/01/27 20:38:36;;;;;;;;;;;5.10;99.90;;;;;;10532401;28;20015;-67
2021/01/27 20:43:40;;;;;;;;;;;5.00;99.90;;;;;;10532071;28;20329;-67
2021/01/27 20:48:41;;;;;;;;;;;5.00;99.90;;;;;;10531814;28;19989;-67
2021/01/27 20:53:43;;;;;;;;;;;5.10;99.90;;;;;;10530340;28;20089;-67
2021/01/27 20:58:44;;;;;;;;;;;5.00;99.90;;;;;;10530049;28;19930;-67
2021/01/27 21:03:47;;;;;;;;;;;5.00;99.90;;;;;;10529578;28;19981;-68
2021/01/27 21:08:48;;;;;;;;;;;4.90;99.90;;;;;;10508013;28;20023;-67
2021/01/27 21:13:49;;;;;;;;;;;4.90;99.90;;;;;;10531355;28;19967;-67
2021/01/27 21:18:51;;;;;;;;;;;4.90;99.90;;;;;;10531573;28;19962;-68
2021/01/27 21:23:52;;;;;;;;;;;4.90;99.90;;;;;;10513706;28;19920;-68
2021/01/27 21:28:53;;;;;;;;;;;4.90;99.90;;;;;;10530733;28;19968;-68
2021/01/27 21:33:55;;;;;;;;;;;4.90;99.90;;;;;;10531172;28;19920;-68
2021/01/27 21:38:56;;;;;;;;;;;4.90;99.90;;;;;;10530901;28;20464;-68
2021/01/27 21:44:15;;;;;;;;;;;5.00;99.90;;;;;;10530650;28;19920;-68
2021/01/27 21:49:16;;;;;;;;;;;5.00;99.90;;;;;;10530140;28;19985;-68
2021/01/27 21:54:18;;;;;;;;;;;4.90;99.90;;;;;;10531709;28;19924;-68
2021/01/27 21:59:19;;;;;;;;;;;4.80;99.90;;;;;;10530513;28;19924;-68
2021/01/27 22:04:21;;;;;;;;;;;4.80;99.90;;;;;;10529590;28;19920;-68
2021/01/27 22:09:22;;;;;;;;;;;4.70;99.90;;;;;;10529736;28;20011;-68
2021/01/27 22:14:23;;;;;;;;;;;4.70;99.90;;;;;;10529387;28;19970;-67
2021/01/27 22:19:25;;;;;;;;;;;4.70;99.90;;;;;;10529707;28;19920;-67
2021/01/27 22:24:26;;;;;;;;;;;4.70;99.90;;;;;;10530256;28;20018;-68
2021/01/27 22:29:28;;;;;;;;;;;4.70;99.90;;;;;;10528081;28;20649;-68
2021/01/27 22:34:29;;;;;;;;;;;4.80;99.90;;;;;;10528651;28;20015;-68
2021/01/27 22:39:30;;;;;;;;;;;4.90;99.90;;;;;;10528251;28;19920;-67
2021/01/27 22:44:32;;;;;;;;;;;4.90;99.90;;;;;;10528693;28;19959;-67
2021/01/27 22:49:33;;;;;;;;;;;5.00;99.90;;;;;;10529137;28;19920;-68
2021/01/27 22:54:35;;;;;;;;;;;5.10;99.90;;;;;;10510682;28;20006;-68
2021/01/27 22:59:36;;;;;;;;;;;5.10;99.90;;;;;;10527436;28;19931;-67
2021/01/27 23:04:37;;;;;;;;;;;5.00;99.90;;;;;;10528436;28;19942;-67
2021/01/27 23:09:39;;;;;;;;;;;5.00;99.90;;;;;;10493936;28;19920;-67
2021/01/27 23:14:40;;;;;;;;;;;5.00;99.90;;;;;;10527116;28;19924;-68
2021/01/27 23:19:42;;;;;;;;;;;5.00;99.90;;;;;;10528617;28;19973;-67
2021/01/27 23:24:43;;;;;;;;;;;4.90;99.90;;;;;;10528116;28;20338;-67
2021/01/27 23:29:45;;;;;;;;;;;4.90;99.90;;;;;;10528668;28;19920;-68
2021/01/27 23:34:46;;;;;;;;;;;4.80;99.90;;;;;;10536470;28;19920;-68
2021/01/27 23:39:48;;;;;;;;;;;5.00;99.90;;;;;;10535991;28;19927;-67
2021/01/27 23:44:52;;;;;;;;;;;5.00;99.90;;;;;;10534574;28;19927;-68
2021/01/27 23:49:54;;;;;;;;;;;5.00;99.90;;;;;;10535123;28;19920;-68
2021/01/27 23:54:55;;;;;;;;;;;5.10;99.90;;;;;;10517488;28;19927;-68
2021/01/27 23:59:57;;;;;;;;;;;5.00;99.90;;;;;;10533975;28;20337;-68
